AirNav   Pilot Hours Calculator
 
 1490 users online  

27FL Adventhealth Wesley Chapel Heliport
Wesley Chapel, Florida, USA

GOING TO WESLEY CHAPEL?


FAA INFORMATION EFFECTIVE 02 JANUARY 2020

Location

FAA Identifier: 27FL
Lat/Long: 28-11-40.9300N 082-21-01.7000W
28-11.682167N 082-21.028333W
28.1947028,-82.3504722
(estimated)
Elevation: 174 ft. / 53 m (estimated)
Time zone: UTC -5 (UTC -4 during Daylight Saving Time)
Zip code: 33543

Heliport Operations

Heliport use: Private use. Permission required prior to landing
Activation date: 04/2013
Control tower: no
ARTCC: MIAMI CENTER
FSS: SAINT PETERSBURG FLIGHT SERVICE STATION
Attendance: CONTINUOUS
Wind indicator: yes
Segmented circle: no

Heliport Communications

WX AWOS-3PT at ZPH (10 nm E): 118.975 (813-780-0031)
WX AWOS-3 at VDF (11 nm S): 121.125 (813-630-0924)
WX AWOS-3 at PCM (15 nm SE): 120.025 (813-764-8259)
WX ASOS at TPA (16 nm SW): PHONE 813-873-7228
WX AWOS-3 at TPF (18 nm S): 118.925 (813-251-6824)
WX ASOS at BKV (18 nm N): 134.725 (352-799-5881)

Nearby radio navigation aids

VOR radial/distance  VOR name  Freq  Var
LALr304/21.8LAKELAND VORTAC116.0001E
PIEr051/24.7ST PETERSBURG VORTAC116.4005W

 
NDB name  Hdg/Dist  Freq  Var  ID
COSME060/11.336805WTP - .--.

Heliport Services

Runway Information

Helipad H1

Dimensions: 61 x 61 ft. / 19 x 19 m
Surface: concrete
Latitude: 28-11.682167N
Longitude: 082-21.028333W
Elevation: 174.0 ft.
Traffic pattern: leftleft

Heliport Ownership and Management from official FAA records

Ownership: Privately-owned
Owner: PASCO-PINELIAS HILLSBOROUGH COMM.
2600 BRUCE B. DOWNS BLVD
WESLEY CHAPEL, FL 33544
Phone (813) 929-5067
Manager: JOHN CROUCH
2600 BRUCE B. DOWNS BLVD
WESLEY CHAPEL, FL 33544
Phone (813) 929-5067
PASCO-PINELIAS HILLSBOROUGH COMMUNITY HEALTH SYSTEM ADDNL CTC: ANGEL LUCAS 813-929-5780 ANGEL.LUCAS@ADVENTHEALTH.COM

Additional Remarks

FOR CD CTC TAMPA APCH AT 813-878-2528

Instrument Procedures

There are no published instrument procedures at 27FL.

Some nearby airports with instrument procedures:

KZPH - Zephyrhills Municipal Airport (10 nm E)
KVDF - Tampa Executive Airport (11 nm S)
KPCM - Plant City Airport (15 nm SE)
KTPA - Tampa International Airport (16 nm SW)
KTPF - Peter O Knight Airport (18 nm S)
KBKV - Brooksville-Tampa Bay Regional Airport (18 nm N)
 
Loc | Ops | Rwys | IFR | FBO | Links
Com | Nav | Svcs | Stats | Notes


 
Aerial photo
No photo
 
Airport distance calculator
Flying to Adventhealth Wesley Chapel Heliport? Find the distance to fly.

From to 27FL

Sunrise and sunset
Times for 28-Jan-2020
 Local
(UTC-5)
 Zulu
(UTC)
Morning civil twilight06:5511:55
Sunrise07:2012:20
Sunset18:0523:05
Evening civil twilight18:3023:30

Current date and time
Zulu (UTC)  28-Jan-2020 23:27:40
Local (UTC-5)  28-Jan-2020 18:27:40
 
METAR
KZPH 
10nm E 
282315Z AUTO 03004KT 10SM CLR 15/03 A2996 RMK A02 T01490033
KVDF 
11nm S 
282315Z AUTO 00000KT 10SM CLR 15/08 A2995 RMK AO2
KPCM 
15nm SE 
282315Z AUTO 04003KT 10SM CLR 18/06 A2996 RMK AO2
KTPA 
17nm SW 
282253Z VRB04KT 10SM CLR 21/04 A2994 RMK AO2 SLP136 T02060044 $
KBKV 
17nm N 
282253Z 06003KT 10SM CLR 18/02 A2995 RMK AO2 SLP142 T01780017
KTPF 
18nm S 
282315Z AUTO 05006KT 10SM BKN110 18/10 A2994 RMK AO2
TAF
KTPA 
17nm SW 
281121Z 2812/2918 03010KT P6SM BKN040 FM281500 03008KT P6SM SCT050 FM282000 34006KT P6SM FEW050 FM290200 VRB03KT P6SM FEW050 SCT250 FM291500 08006KT P6SM SCT050 BKN100
NOTAMs
Click for the latest NOTAMs
NOTAMs are issued by the DoD/FAA and will open in a separate window not controlled by AirNav.

 

 
 

Would you like to see your business listed on this page?

 If your business provides an interesting product or service to pilots, flight crews, aircraft, or users of the Adventhealth Wesley Chapel Heliport, you should consider listing it here.  To start the listing process, click on the button below
 
Add a business
 

Other Pages about Adventhealth Wesley Chapel Heliport

Update a link
 
Copyright © AirNav, LLC. All rights reserved. Privacy Policy  Contact